PWSweather.com
Personal Weather Stations
Station Observations
INORDPAS37
Bondues, BonduesFR 59910

BonduesBonduesFR 59910

Lat: 50.7, Lon: 3.09

Elevation: 102

Station Type: Netatmo

http://bondues.meteoamikuze.com

High Low Average
Temperature 89.8°F32.1°C 65.8°F18.8°C 78.4°F25.8°C
Dew Point 60.4°F15.8°C 43.0°F6.1°C 51.9°F11.1°C
Winds 4.3 mph 6.9 kmh 0.7 mph 1.1 kmh 2.0 mph E3.2 kmh E
Wind Gusts 11.9 mph19.2 kmh 2.5 mph4.0 kmh 6.0 mph9.7 kmh
Humidity 46% 33% 38%
Pressure 29.95 in1014.2 mb 29.90 in1012.5 mb -
Precipitation 0.00 in0.0 mm - -
Hour Temp Dew Point Humidity Winds Wind Gusts Pressure Precip Precip Rate Daily Precip Total
12:05 AM 73.8°F23.2°C 50.7°F10.4°C 45% 1.8 mph ENE2.9 kmh ENE 7.4 mph11.9 kmh 29.92 in1013.2 mb 0.00 in0.0 mm 0.00 in0.0 mm 0.00 in0.0 mm
12:25 AM 73.0°F22.8°C 49.6°F9.8°C 44% 1.3 mph ENE2.1 kmh ENE 3.8 mph6.1 kmh 29.92 in1013.2 mb 0.00 in0.0 mm 0.00 in0.0 mm 0.00 in0.0 mm
12:45 AM 72.7°F22.6°C 48.4°F9.1°C 42% 1.3 mph NE2.1 kmh NE 4.3 mph6.9 kmh 29.92 in1013.2 mb 0.00 in0.0 mm 0.00 in0.0 mm 0.00 in0.0 mm
01:06 AM 72.0°F22.2°C 47.7°F8.7°C 42% 1.3 mph NE2.1 kmh NE 4.9 mph7.9 kmh 29.91 in1012.9 mb 0.00 in0.0 mm 0.00 in0.0 mm 0.00 in0.0 mm
01:26 AM 71.2°F21.8°C 46.6°F8.1°C 41% 1.3 mph ENE2.1 kmh ENE 5.6 mph9.0 kmh 29.92 in1013.2 mb 0.00 in0.0 mm 0.00 in0.0 mm 0.00 in0.0 mm
01:46 AM 70.7°F21.5°C 46.2°F7.9°C 41% 1.3 mph E2.1 kmh E 5.6 mph9.0 kmh 29.92 in1013.2 mb 0.00 in0.0 mm 0.00 in0.0 mm 0.00 in0.0 mm
02:06 AM 70.2°F21.2°C 45.7°F7.6°C 41% 1.3 mph ENE2.1 kmh ENE 5.6 mph9.0 kmh 29.91 in1012.9 mb 0.00 in0.0 mm 0.00 in0.0 mm 0.00 in0.0 mm
02:27 AM 69.6°F20.9°C 45.1°F7.3°C 41% 1.3 mph NE2.1 kmh NE 4.3 mph6.9 kmh 29.91 in1012.9 mb 0.00 in0.0 mm 0.00 in0.0 mm 0.00 in0.0 mm
02:47 AM 69.1°F20.6°C 44.8°F7.1°C 41% 1.3 mph NE2.1 kmh NE 3.8 mph6.1 kmh 29.91 in1012.9 mb 0.00 in0.0 mm 0.00 in0.0 mm 0.00 in0.0 mm
03:07 AM 68.7°F20.4°C 44.4°F6.9°C 41% 1.3 mph NE2.1 kmh NE 4.3 mph6.9 kmh 29.91 in1012.9 mb 0.00 in0.0 mm 0.00 in0.0 mm 0.00 in0.0 mm
03:27 AM 68.5°F20.3°C 44.2°F6.8°C 41% 1.3 mph NE2.1 kmh NE 4.3 mph6.9 kmh 29.91 in1012.9 mb 0.00 in0.0 mm 0.00 in0.0 mm 0.00 in0.0 mm
03:48 AM 68.5°F20.3°C 44.2°F6.8°C 41% 1.3 mph ENE2.1 kmh ENE 3.8 mph6.1 kmh 29.91 in1012.9 mb 0.00 in0.0 mm 0.00 in0.0 mm 0.00 in0.0 mm
04:08 AM 68.2°F20.1°C 44.2°F6.8°C 42% 1.3 mph NE2.1 kmh NE 3.8 mph6.1 kmh 29.91 in1012.9 mb 0.00 in0.0 mm 0.00 in0.0 mm 0.00 in0.0 mm
04:28 AM 67.6°F19.8°C 43.9°F6.6°C 42% 0.7 mph NE1.1 kmh NE 2.5 mph4.0 kmh 29.91 in1012.9 mb 0.00 in0.0 mm 0.00 in0.0 mm 0.00 in0.0 mm
04:49 AM 66.7°F19.3°C 43.3°F6.3°C 43% 0.7 mph NE1.1 kmh NE 3.1 mph5.0 kmh 29.91 in1012.9 mb 0.00 in0.0 mm 0.00 in0.0 mm 0.00 in0.0 mm
05:08 AM 66.2°F19.0°C 43.0°F6.1°C 43% 1.3 mph ENE2.1 kmh ENE 4.3 mph6.9 kmh 29.91 in1012.9 mb 0.00 in0.0 mm 0.00 in0.0 mm 0.00 in0.0 mm
05:29 AM 65.8°F18.8°C 43.0°F6.1°C 44% 1.3 mph E2.1 kmh E 2.5 mph4.0 kmh 29.91 in1012.9 mb 0.00 in0.0 mm 0.00 in0.0 mm 0.00 in0.0 mm
05:48 AM 66.4°F19.1°C 43.9°F6.6°C 45% 1.8 mph E2.9 kmh E 5.6 mph9.0 kmh 29.92 in1013.2 mb 0.00 in0.0 mm 0.00 in0.0 mm 0.00 in0.0 mm
06:09 AM 67.1°F19.5°C 44.6°F7.0°C 45% 2.5 mph E4.0 kmh E 5.6 mph9.0 kmh 29.92 in1013.2 mb 0.00 in0.0 mm 0.00 in0.0 mm 0.00 in0.0 mm
06:19 AM 67.5°F19.7°C 45.3°F7.4°C 46% 1.8 mph E2.9 kmh E 5.6 mph9.0 kmh 29.92 in1013.2 mb 0.00 in0.0 mm 0.00 in0.0 mm 0.00 in0.0 mm
06:40 AM 68.4°F20.2°C 46.2°F7.9°C 46% 1.3 mph E2.1 kmh E 4.3 mph6.9 kmh 29.93 in1013.5 mb 0.00 in0.0 mm 0.00 in0.0 mm 0.00 in0.0 mm
06:59 AM 70.0°F21.1°C 47.7°F8.7°C 46% 2.5 mph E4.0 kmh E 7.4 mph11.9 kmh 29.93 in1013.5 mb 0.00 in0.0 mm 0.00 in0.0 mm 0.00 in0.0 mm
07:20 AM 71.4°F21.9°C 48.6°F9.2°C 45% 1.8 mph E2.9 kmh E 4.3 mph6.9 kmh 29.93 in1013.5 mb 0.00 in0.0 mm 0.00 in0.0 mm 0.00 in0.0 mm
07:40 AM 73.0°F22.8°C 50.0°F10.0°C 45% 1.3 mph E2.1 kmh E 4.9 mph7.9 kmh 29.93 in1013.5 mb 0.00 in0.0 mm 0.00 in0.0 mm 0.00 in0.0 mm
08:00 AM 74.7°F23.7°C 51.1°F10.6°C 44% 1.8 mph ENE2.9 kmh ENE 4.9 mph7.9 kmh 29.93 in1013.5 mb 0.00 in0.0 mm 0.00 in0.0 mm 0.00 in0.0 mm
08:20 AM 76.3°F24.6°C 52.2°F11.2°C 43% 2.5 mph E4.0 kmh E 6.9 mph11.1 kmh 29.93 in1013.5 mb 0.00 in0.0 mm 0.00 in0.0 mm 0.00 in0.0 mm
08:41 AM 76.6°F24.8°C 51.6°F10.9°C 41% 2.5 mph E4.0 kmh E 4.9 mph7.9 kmh 29.93 in1013.5 mb 0.00 in0.0 mm 0.00 in0.0 mm 0.00 in0.0 mm
09:01 AM 77.5°F25.3°C 52.3°F11.3°C 41% 1.8 mph E2.9 kmh E 4.9 mph7.9 kmh 29.93 in1013.5 mb 0.00 in0.0 mm 0.00 in0.0 mm 0.00 in0.0 mm
09:21 AM 78.6°F25.9°C 52.9°F11.6°C 40% 2.5 mph E4.0 kmh E 5.6 mph9.0 kmh 29.93 in1013.5 mb 0.00 in0.0 mm 0.00 in0.0 mm 0.00 in0.0 mm
09:42 AM 79.2°F26.2°C 53.4°F11.9°C 40% 2.5 mph ESE4.0 kmh ESE 4.9 mph7.9 kmh 29.93 in1013.5 mb 0.00 in0.0 mm 0.00 in0.0 mm 0.00 in0.0 mm
10:06 AM 79.9°F26.6°C 53.6°F12.0°C 39% 3.1 mph ESE5.0 kmh ESE 8.7 mph14.0 kmh 29.93 in1013.5 mb 0.00 in0.0 mm 0.00 in0.0 mm 0.00 in0.0 mm
10:29 AM 81.1°F27.3°C 54.9°F12.7°C 39% 1.8 mph E2.9 kmh E 4.9 mph7.9 kmh 29.93 in1013.5 mb 0.00 in0.0 mm 0.00 in0.0 mm 0.00 in0.0 mm
10:47 AM 82.6°F28.1°C 56.1°F13.4°C 39% 3.8 mph E6.1 kmh E 8.7 mph14.0 kmh 29.94 in1013.9 mb 0.00 in0.0 mm 0.00 in0.0 mm 0.00 in0.0 mm
11:08 AM 83.3°F28.5°C 56.3°F13.5°C 38% 2.5 mph ESE4.0 kmh ESE 8.1 mph13.0 kmh 29.93 in1013.5 mb 0.00 in0.0 mm 0.00 in0.0 mm 0.00 in0.0 mm
11:28 AM 83.5°F28.6°C 56.5°F13.6°C 38% 3.1 mph ESE5.0 kmh ESE 9.4 mph15.1 kmh 29.93 in1013.5 mb 0.00 in0.0 mm 0.00 in0.0 mm 0.00 in0.0 mm
11:48 AM 84.0°F28.9°C 57.0°F13.9°C 38% 3.1 mph SE5.0 kmh SE 8.1 mph13.0 kmh 29.93 in1013.5 mb 0.00 in0.0 mm 0.00 in0.0 mm 0.00 in0.0 mm
11:58 AM 84.6°F29.2°C 57.4°F14.1°C 38% 2.5 mph E4.0 kmh E 7.4 mph11.9 kmh 29.93 in1013.5 mb 0.00 in0.0 mm 0.00 in0.0 mm 0.00 in0.0 mm
12:23 PM 85.3°F29.6°C 57.7°F14.3°C 37% 3.8 mph E6.1 kmh E 11.2 mph18.0 kmh 29.93 in1013.5 mb 0.00 in0.0 mm 0.00 in0.0 mm 0.00 in0.0 mm
12:41 PM 85.5°F29.7°C 57.7°F14.3°C 37% 2.5 mph E4.0 kmh E 8.1 mph13.0 kmh 29.92 in1013.2 mb 0.00 in0.0 mm 0.00 in0.0 mm 0.00 in0.0 mm
01:02 PM 86.2°F30.1°C 58.5°F14.7°C 37% 2.5 mph E4.0 kmh E 8.7 mph14.0 kmh 29.92 in1013.2 mb 0.00 in0.0 mm 0.00 in0.0 mm 0.00 in0.0 mm
01:21 PM 87.4°F30.8°C 59.5°F15.3°C 37% 3.1 mph SE5.0 kmh SE 7.4 mph11.9 kmh 29.92 in1013.2 mb 0.00 in0.0 mm 0.00 in0.0 mm 0.00 in0.0 mm
01:42 PM 87.8°F31.0°C 59.5°F15.3°C 36% 3.8 mph E6.1 kmh E 10.5 mph16.9 kmh 29.92 in1013.2 mb 0.00 in0.0 mm 0.00 in0.0 mm 0.00 in0.0 mm
02:02 PM 88.0°F31.1°C 59.2°F15.1°C 35% 4.3 mph E6.9 kmh E 9.8 mph15.8 kmh 29.91 in1012.9 mb 0.00 in0.0 mm 0.00 in0.0 mm 0.00 in0.0 mm
02:22 PM 88.5°F31.4°C 59.7°F15.4°C 35% 1.8 mph SE2.9 kmh SE 5.6 mph9.0 kmh 29.91 in1012.9 mb 0.00 in0.0 mm 0.00 in0.0 mm 0.00 in0.0 mm
02:42 PM 88.7°F31.5°C 59.9°F15.5°C 35% 3.1 mph E5.0 kmh E 8.1 mph13.0 kmh 29.91 in1012.9 mb 0.00 in0.0 mm 0.00 in0.0 mm 0.00 in0.0 mm
03:02 PM 89.2°F31.8°C 60.3°F15.7°C 35% 3.1 mph E5.0 kmh E 7.4 mph11.9 kmh 29.91 in1012.9 mb 0.00 in0.0 mm 0.00 in0.0 mm 0.00 in0.0 mm
03:23 PM 89.6°F32.0°C 60.3°F15.7°C 34% 3.1 mph ESE5.0 kmh ESE 6.9 mph11.1 kmh 29.91 in1012.9 mb 0.00 in0.0 mm 0.00 in0.0 mm 0.00 in0.0 mm
03:43 PM 89.6°F32.0°C 60.3°F15.7°C 34% 3.1 mph ESE5.0 kmh ESE 8.1 mph13.0 kmh 29.91 in1012.9 mb 0.00 in0.0 mm 0.00 in0.0 mm 0.00 in0.0 mm
04:04 PM 89.8°F32.1°C 60.4°F15.8°C 34% 2.5 mph ENE4.0 kmh ENE 11.2 mph18.0 kmh 29.90 in1012.5 mb 0.00 in0.0 mm 0.00 in0.0 mm 0.00 in0.0 mm
04:24 PM 88.9°F31.6°C 59.5°F15.3°C 34% 3.1 mph SE5.0 kmh SE 7.4 mph11.9 kmh 29.91 in1012.9 mb 0.00 in0.0 mm 0.00 in0.0 mm 0.00 in0.0 mm
04:44 PM 88.2°F31.2°C 58.8°F14.9°C 34% 2.5 mph ENE4.0 kmh ENE 11.9 mph19.2 kmh 29.90 in1012.5 mb 0.00 in0.0 mm 0.00 in0.0 mm 0.00 in0.0 mm
05:03 PM 88.3°F31.3°C 59.0°F15.0°C 34% 3.8 mph E6.1 kmh E 8.7 mph14.0 kmh 29.90 in1012.5 mb 0.00 in0.0 mm 0.00 in0.0 mm 0.00 in0.0 mm
05:24 PM 88.2°F31.2°C 58.8°F14.9°C 34% 2.5 mph E4.0 kmh E 6.9 mph11.1 kmh 29.90 in1012.5 mb 0.00 in0.0 mm 0.00 in0.0 mm 0.00 in0.0 mm
05:44 PM 87.8°F31.0°C 58.6°F14.8°C 34% 3.1 mph E5.0 kmh E 8.1 mph13.0 kmh 29.90 in1012.5 mb 0.00 in0.0 mm 0.00 in0.0 mm 0.00 in0.0 mm
06:04 PM 86.4°F30.2°C 57.2°F14.0°C 34% 2.5 mph E4.0 kmh E 6.9 mph11.1 kmh 29.90 in1012.5 mb 0.00 in0.0 mm 0.00 in0.0 mm 0.00 in0.0 mm
06:27 PM 85.1°F29.5°C 56.1°F13.4°C 34% 3.1 mph E5.0 kmh E 8.7 mph14.0 kmh 29.90 in1012.5 mb 0.00 in0.0 mm 0.00 in0.0 mm 0.00 in0.0 mm
06:48 PM 84.2°F29.0°C 55.8°F13.2°C 35% 1.8 mph E2.9 kmh E 4.9 mph7.9 kmh 29.91 in1012.9 mb 0.00 in0.0 mm 0.00 in0.0 mm 0.00 in0.0 mm
07:08 PM 83.5°F28.6°C 55.2°F12.9°C 35% 1.8 mph E2.9 kmh E 4.9 mph7.9 kmh 29.91 in1012.9 mb 0.00 in0.0 mm 0.00 in0.0 mm 0.00 in0.0 mm
07:27 PM 82.8°F28.2°C 54.0°F12.2°C 34% 1.8 mph ENE2.9 kmh ENE 5.6 mph9.0 kmh 29.91 in1012.9 mb 0.00 in0.0 mm 0.00 in0.0 mm 0.00 in0.0 mm
07:47 PM 81.9°F27.7°C 53.2°F11.8°C 34% 1.8 mph E2.9 kmh E 5.6 mph9.0 kmh 29.91 in1012.9 mb 0.00 in0.0 mm 0.00 in0.0 mm 0.00 in0.0 mm
08:07 PM 81.1°F27.3°C 52.5°F11.4°C 34% 1.8 mph ENE2.9 kmh ENE 6.9 mph11.1 kmh 29.92 in1013.2 mb 0.00 in0.0 mm 0.00 in0.0 mm 0.00 in0.0 mm
08:22 PM 80.6°F27.0°C 52.2°F11.2°C 34% 3.1 mph E5.0 kmh E 6.9 mph11.1 kmh 29.92 in1013.2 mb 0.00 in0.0 mm 0.00 in0.0 mm 0.00 in0.0 mm
08:42 PM 79.5°F26.4°C 50.7°F10.4°C 33% 1.8 mph ENE2.9 kmh ENE 4.9 mph7.9 kmh 29.93 in1013.5 mb 0.00 in0.0 mm 0.00 in0.0 mm 0.00 in0.0 mm
09:05 PM 78.4°F25.8°C 49.8°F9.9°C 33% 2.5 mph ENE4.0 kmh ENE 6.9 mph11.1 kmh 29.93 in1013.5 mb 0.00 in0.0 mm 0.00 in0.0 mm 0.00 in0.0 mm
09:25 PM 77.5°F25.3°C 48.9°F9.4°C 33% 1.8 mph NE2.9 kmh NE 4.9 mph7.9 kmh 29.93 in1013.5 mb 0.00 in0.0 mm 0.00 in0.0 mm 0.00 in0.0 mm
09:45 PM 76.6°F24.8°C 48.2°F9.0°C 33% 1.3 mph E2.1 kmh E 3.8 mph6.1 kmh 29.94 in1013.9 mb 0.00 in0.0 mm 0.00 in0.0 mm 0.00 in0.0 mm
10:05 PM 75.7°F24.3°C 47.3°F8.5°C 33% 1.3 mph ENE2.1 kmh ENE 4.3 mph6.9 kmh 29.94 in1013.9 mb 0.00 in0.0 mm 0.00 in0.0 mm 0.00 in0.0 mm
10:25 PM 75.0°F23.9°C 47.1°F8.4°C 34% 1.3 mph ENE2.1 kmh ENE 4.3 mph6.9 kmh 29.94 in1013.9 mb 0.00 in0.0 mm 0.00 in0.0 mm 0.00 in0.0 mm
11:00 PM 73.8°F23.2°C 46.0°F7.8°C 34% 1.3 mph NE2.1 kmh NE 3.1 mph5.0 kmh 29.95 in1014.2 mb 0.00 in0.0 mm 0.00 in0.0 mm 0.00 in0.0 mm
11:21 PM 72.9°F22.7°C 45.1°F7.3°C 34% 1.3 mph NE2.1 kmh NE 4.3 mph6.9 kmh 29.94 in1013.9 mb 0.00 in0.0 mm 0.00 in0.0 mm 0.00 in0.0 mm
11:41 PM 72.1°F22.3°C 44.6°F7.0°C 34% 1.8 mph NE2.9 kmh NE 4.3 mph6.9 kmh 29.94 in1013.9 mb 0.00 in0.0 mm 0.00 in0.0 mm 0.00 in0.0 mm